sensor_id;sensor_type;location;lat;lon;timestamp;temperature;humidity
1592;DHT22;789;51.612;7.510;2022-12-18T00:00:08;-5.10;1.00
1592;DHT22;789;51.612;7.510;2022-12-18T00:02:35;-5.00;1.00
1592;DHT22;789;51.612;7.510;2022-12-18T00:05:01;-5.00;1.00
1592;DHT22;789;51.612;7.510;2022-12-18T00:07:28;-5.00;1.00
1592;DHT22;789;51.612;7.510;2022-12-18T00:09:55;-5.10;1.00
1592;DHT22;789;51.612;7.510;2022-12-18T00:12:22;-5.20;1.00
1592;DHT22;789;51.612;7.510;2022-12-18T00:14:48;-5.10;1.00
1592;DHT22;789;51.612;7.510;2022-12-18T00:17:17;-5.10;1.00
1592;DHT22;789;51.612;7.510;2022-12-18T00:19:43;-5.00;1.00
1592;DHT22;789;51.612;7.510;2022-12-18T00:22:10;-5.00;1.00
1592;DHT22;789;51.612;7.510;2022-12-18T00:24:37;-4.90;1.00
1592;DHT22;789;51.612;7.510;2022-12-18T00:27:04;-4.90;1.00
1592;DHT22;789;51.612;7.510;2022-12-18T00:29:30;-4.90;1.00
1592;DHT22;789;51.612;7.510;2022-12-18T00:31:57;-4.80;1.00
1592;DHT22;789;51.612;7.510;2022-12-18T00:34:25;-4.80;1.00
1592;DHT22;789;51.612;7.510;2022-12-18T00:36:52;-4.80;1.00
1592;DHT22;789;51.612;7.510;2022-12-18T00:39:19;-4.80;1.00
1592;DHT22;789;51.612;7.510;2022-12-18T00:41:46;-4.80;1.00
1592;DHT22;789;51.612;7.510;2022-12-18T00:44:30;-4.80;1.00
1592;DHT22;789;51.612;7.510;2022-12-18T00:46:57;-4.80;1.00
1592;DHT22;789;51.612;7.510;2022-12-18T00:49:25;-4.80;1.00
1592;DHT22;789;51.612;7.510;2022-12-18T00:51:52;-4.80;1.00
1592;DHT22;789;51.612;7.510;2022-12-18T00:54:18;-4.70;1.00
1592;DHT22;789;51.612;7.510;2022-12-18T00:56:45;-4.70;1.00
1592;DHT22;789;51.612;7.510;2022-12-18T00:59:12;-4.70;1.00
1592;DHT22;789;51.612;7.510;2022-12-18T01:01:39;-4.80;1.00
1592;DHT22;789;51.612;7.510;2022-12-18T01:04:05;-4.80;1.00
1592;DHT22;789;51.612;7.510;2022-12-18T01:06:33;-5.00;1.00
1592;DHT22;789;51.612;7.510;2022-12-18T01:09:00;-5.10;1.00
1592;DHT22;789;51.612;7.510;2022-12-18T01:11:27;-5.20;1.00
1592;DHT22;789;51.612;7.510;2022-12-18T01:13:54;-5.20;1.00
1592;DHT22;789;51.612;7.510;2022-12-18T01:16:22;-5.20;1.00
1592;DHT22;789;51.612;7.510;2022-12-18T01:18:51;-5.10;1.00
1592;DHT22;789;51.612;7.510;2022-12-18T01:21:18;-5.10;1.00
1592;DHT22;789;51.612;7.510;2022-12-18T01:23:50;-5.10;1.00
1592;DHT22;789;51.612;7.510;2022-12-18T01:26:17;-5.30;1.00
1592;DHT22;789;51.612;7.510;2022-12-18T01:28:44;-5.40;1.00
1592;DHT22;789;51.612;7.510;2022-12-18T01:31:17;-5.50;1.00
1592;DHT22;789;51.612;7.510;2022-12-18T01:33:45;-5.60;1.00
1592;DHT22;789;51.612;7.510;2022-12-18T01:36:16;-5.60;1.00
1592;DHT22;789;51.612;7.510;2022-12-18T01:38:44;-5.60;1.00
1592;DHT22;789;51.612;7.510;2022-12-18T01:41:12;-5.60;1.00
1592;DHT22;789;51.612;7.510;2022-12-18T01:43:48;-5.60;1.00
1592;DHT22;789;51.612;7.510;2022-12-18T01:46:15;-5.50;1.00
1592;DHT22;789;51.612;7.510;2022-12-18T01:48:42;-5.40;1.00
1592;DHT22;789;51.612;7.510;2022-12-18T01:51:11;-5.40;1.00
1592;DHT22;789;51.612;7.510;2022-12-18T01:53:40;-5.50;1.00
1592;DHT22;789;51.612;7.510;2022-12-18T01:56:11;-5.50;1.00
1592;DHT22;789;51.612;7.510;2022-12-18T01:58:46;-5.50;1.00
1592;DHT22;789;51.612;7.510;2022-12-18T02:01:14;-5.50;1.00
1592;DHT22;789;51.612;7.510;2022-12-18T02:03:42;-5.50;1.00
1592;DHT22;789;51.612;7.510;2022-12-18T02:06:13;-5.50;1.00
1592;DHT22;789;51.612;7.510;2022-12-18T02:08:48;-5.50;1.00
1592;DHT22;789;51.612;7.510;2022-12-18T02:11:24;-5.40;1.00
1592;DHT22;789;51.612;7.510;2022-12-18T02:14:01;-5.40;1.00
1592;DHT22;789;51.612;7.510;2022-12-18T02:16:33;-5.30;1.00
1592;DHT22;789;51.612;7.510;2022-12-18T02:19:11;-5.30;1.00
1592;DHT22;789;51.612;7.510;2022-12-18T02:21:48;-5.40;1.00
1592;DHT22;789;51.612;7.510;2022-12-18T02:24:23;-5.40;1.00
1592;DHT22;789;51.612;7.510;2022-12-18T02:26:56;-5.40;1.00
1592;DHT22;789;51.612;7.510;2022-12-18T02:29:26;-5.50;1.00
1592;DHT22;789;51.612;7.510;2022-12-18T02:31:57;-5.50;1.00
1592;DHT22;789;51.612;7.510;2022-12-18T02:34:29;-5.40;1.00
1592;DHT22;789;51.612;7.510;2022-12-18T02:36:58;-5.40;1.00
1592;DHT22;789;51.612;7.510;2022-12-18T02:39:27;-5.50;1.00
1592;DHT22;789;51.612;7.510;2022-12-18T02:41:57;-5.40;1.00
1592;DHT22;789;51.612;7.510;2022-12-18T02:44:24;-5.40;1.00
1592;DHT22;789;51.612;7.510;2022-12-18T02:46:52;-5.40;1.00
1592;DHT22;789;51.612;7.510;2022-12-18T02:49:28;-5.40;1.00
1592;DHT22;789;51.612;7.510;2022-12-18T02:52:03;-5.40;1.00
1592;DHT22;789;51.612;7.510;2022-12-18T02:54:41;-5.40;1.00
1592;DHT22;789;51.612;7.510;2022-12-18T02:57:18;-5.40;1.00
1592;DHT22;789;51.612;7.510;2022-12-18T02:59:52;-5.40;1.00
1592;DHT22;789;51.612;7.510;2022-12-18T03:02:28;-5.50;1.00
1592;DHT22;789;51.612;7.510;2022-12-18T03:04:59;-5.70;1.00
1592;DHT22;789;51.612;7.510;2022-12-18T03:07:34;-5.60;1.00
1592;DHT22;789;51.612;7.510;2022-12-18T03:10:02;-5.70;1.00
1592;DHT22;789;51.612;7.510;2022-12-18T03:12:34;-5.70;1.00
1592;DHT22;789;51.612;7.510;2022-12-18T03:15:04;-5.70;1.00
1592;DHT22;789;51.612;7.510;2022-12-18T03:17:34;-5.70;1.00
1592;DHT22;789;51.612;7.510;2022-12-18T03:20:06;-5.70;1.00
1592;DHT22;789;51.612;7.510;2022-12-18T03:22:34;-5.70;1.00
1592;DHT22;789;51.612;7.510;2022-12-18T03:25:04;-5.70;1.00
1592;DHT22;789;51.612;7.510;2022-12-18T03:27:37;-5.70;1.00
1592;DHT22;789;51.612;7.510;2022-12-18T03:30:07;-5.70;1.00
1592;DHT22;789;51.612;7.510;2022-12-18T03:32:40;-5.70;1.00
1592;DHT22;789;51.612;7.510;2022-12-18T03:35:09;-5.70;1.00
1592;DHT22;789;51.612;7.510;2022-12-18T03:37:38;-5.60;1.00
1592;DHT22;789;51.612;7.510;2022-12-18T03:40:06;-5.60;1.00
1592;DHT22;789;51.612;7.510;2022-12-18T03:42:40;-5.50;1.00
1592;DHT22;789;51.612;7.510;2022-12-18T03:45:13;-5.50;1.00
1592;DHT22;789;51.612;7.510;2022-12-18T03:47:54;-5.60;1.00
1592;DHT22;789;51.612;7.510;2022-12-18T03:50:30;-5.70;1.00
1592;DHT22;789;51.612;7.510;2022-12-18T03:53:01;-5.80;1.00
1592;DHT22;789;51.612;7.510;2022-12-18T03:55:33;-5.70;1.00
1592;DHT22;789;51.612;7.510;2022-12-18T03:58:03;-5.70;1.00
1592;DHT22;789;51.612;7.510;2022-12-18T04:00:32;-5.80;1.00
1592;DHT22;789;51.612;7.510;2022-12-18T04:03:01;-5.90;1.00
1592;DHT22;789;51.612;7.510;2022-12-18T04:05:28;-6.00;1.00
1592;DHT22;789;51.612;7.510;2022-12-18T04:07:56;-5.90;1.00
1592;DHT22;789;51.612;7.510;2022-12-18T04:10:23;-5.90;1.00
1592;DHT22;789;51.612;7.510;2022-12-18T04:12:50;-5.90;1.00
1592;DHT22;789;51.612;7.510;2022-12-18T04:15:18;-5.90;1.00
1592;DHT22;789;51.612;7.510;2022-12-18T04:17:48;-5.90;1.00
1592;DHT22;789;51.612;7.510;2022-12-18T04:20:15;-5.90;1.00
1592;DHT22;789;51.612;7.510;2022-12-18T04:22:42;-5.90;1.00
1592;DHT22;789;51.612;7.510;2022-12-18T04:25:09;-5.90;1.00
1592;DHT22;789;51.612;7.510;2022-12-18T04:27:36;-5.90;1.00
1592;DHT22;789;51.612;7.510;2022-12-18T04:30:03;-5.90;1.00
1592;DHT22;789;51.612;7.510;2022-12-18T04:32:33;-5.90;1.00
1592;DHT22;789;51.612;7.510;2022-12-18T04:34:59;-5.90;1.00
1592;DHT22;789;51.612;7.510;2022-12-18T04:37:26;-5.90;1.00
1592;DHT22;789;51.612;7.510;2022-12-18T04:39:53;-5.90;1.00
1592;DHT22;789;51.612;7.510;2022-12-18T04:42:20;-6.00;1.00
1592;DHT22;789;51.612;7.510;2022-12-18T04:44:46;-6.00;1.00
1592;DHT22;789;51.612;7.510;2022-12-18T04:47:13;-6.00;1.00
1592;DHT22;789;51.612;7.510;2022-12-18T04:49:41;-6.00;1.00
1592;DHT22;789;51.612;7.510;2022-12-18T04:52:08;-6.00;1.00
1592;DHT22;789;51.612;7.510;2022-12-18T04:54:35;-6.00;1.00
1592;DHT22;789;51.612;7.510;2022-12-18T04:57:01;-5.90;1.00
1592;DHT22;789;51.612;7.510;2022-12-18T04:59:28;-5.90;1.00
1592;DHT22;789;51.612;7.510;2022-12-18T05:01:55;-5.80;1.00
1592;DHT22;789;51.612;7.510;2022-12-18T05:04:21;-5.80;1.00
1592;DHT22;789;51.612;7.510;2022-12-18T05:06:50;-5.80;1.00
1592;DHT22;789;51.612;7.510;2022-12-18T05:09:16;-5.70;1.00
1592;DHT22;789;51.612;7.510;2022-12-18T05:11:43;-5.70;1.00
1592;DHT22;789;51.612;7.510;2022-12-18T05:14:10;-5.70;1.00
1592;DHT22;789;51.612;7.510;2022-12-18T05:16:36;-5.70;1.00
1592;DHT22;789;51.612;7.510;2022-12-18T05:19:03;-5.70;1.00
1592;DHT22;789;51.612;7.510;2022-12-18T05:21:30;-5.70;1.00
1592;DHT22;789;51.612;7.510;2022-12-18T05:23:58;-5.70;1.00
1592;DHT22;789;51.612;7.510;2022-12-18T05:26:24;-5.70;1.00
1592;DHT22;789;51.612;7.510;2022-12-18T05:28:51;-5.70;1.00
1592;DHT22;789;51.612;7.510;2022-12-18T05:31:18;-5.70;1.00
1592;DHT22;789;51.612;7.510;2022-12-18T05:33:45;-5.70;1.00
1592;DHT22;789;51.612;7.510;2022-12-18T05:36:11;-5.70;1.00
1592;DHT22;789;51.612;7.510;2022-12-18T05:38:39;-5.80;1.00
1592;DHT22;789;51.612;7.510;2022-12-18T05:41:08;-5.80;1.00
1592;DHT22;789;51.612;7.510;2022-12-18T05:43:36;-5.80;1.00
1592;DHT22;789;51.612;7.510;2022-12-18T05:46:04;-5.80;1.00
1592;DHT22;789;51.612;7.510;2022-12-18T05:48:31;-5.90;1.00
1592;DHT22;789;51.612;7.510;2022-12-18T05:51:03;-6.00;1.00
1592;DHT22;789;51.612;7.510;2022-12-18T05:53:31;-5.90;1.00
1592;DHT22;789;51.612;7.510;2022-12-18T05:56:00;-5.90;1.00
1592;DHT22;789;51.612;7.510;2022-12-18T05:58:29;-5.90;1.00
1592;DHT22;789;51.612;7.510;2022-12-18T06:00:56;-5.90;1.00
1592;DHT22;789;51.612;7.510;2022-12-18T06:03:23;-5.90;1.00
1592;DHT22;789;51.612;7.510;2022-12-18T06:05:50;-5.90;1.00
1592;DHT22;789;51.612;7.510;2022-12-18T06:08:16;-5.90;1.00
1592;DHT22;789;51.612;7.510;2022-12-18T06:10:50;-5.90;1.00
1592;DHT22;789;51.612;7.510;2022-12-18T06:13:18;-6.00;1.00
1592;DHT22;789;51.612;7.510;2022-12-18T06:15:46;-6.10;1.00
1592;DHT22;789;51.612;7.510;2022-12-18T06:18:13;-6.20;1.00
1592;DHT22;789;51.612;7.510;2022-12-18T06:20:40;-6.20;1.00
1592;DHT22;789;51.612;7.510;2022-12-18T06:23:07;-6.20;1.00
1592;DHT22;789;51.612;7.510;2022-12-18T06:25:36;-6.20;1.00
1592;DHT22;789;51.612;7.510;2022-12-18T06:28:03;-6.20;1.00
1592;DHT22;789;51.612;7.510;2022-12-18T06:30:30;-6.20;1.00
1592;DHT22;789;51.612;7.510;2022-12-18T06:32:58;-6.20;1.00
1592;DHT22;789;51.612;7.510;2022-12-18T06:35:25;-6.20;1.00
1592;DHT22;789;51.612;7.510;2022-12-18T06:37:52;-6.10;1.00
1592;DHT22;789;51.612;7.510;2022-12-18T06:40:18;-6.10;1.00
1592;DHT22;789;51.612;7.510;2022-12-18T06:42:45;-6.20;1.00
1592;DHT22;789;51.612;7.510;2022-12-18T06:45:12;-6.20;1.00
1592;DHT22;789;51.612;7.510;2022-12-18T06:47:38;-6.20;1.00
1592;DHT22;789;51.612;7.510;2022-12-18T06:50:07;-6.10;1.00
1592;DHT22;789;51.612;7.510;2022-12-18T06:52:34;-6.10;1.00
1592;DHT22;789;51.612;7.510;2022-12-18T06:55:02;-6.10;1.00
1592;DHT22;789;51.612;7.510;2022-12-18T06:57:29;-6.20;1.00
1592;DHT22;789;51.612;7.510;2022-12-18T06:59:56;-6.20;1.00
1592;DHT22;789;51.612;7.510;2022-12-18T07:02:22;-6.10;1.00
1592;DHT22;789;51.612;7.510;2022-12-18T07:04:49;-6.10;1.00
1592;DHT22;789;51.612;7.510;2022-12-18T07:07:17;-6.20;1.00
1592;DHT22;789;51.612;7.510;2022-12-18T07:09:44;-6.20;1.00
1592;DHT22;789;51.612;7.510;2022-12-18T07:12:11;-6.10;1.00
1592;DHT22;789;51.612;7.510;2022-12-18T07:14:38;-6.00;1.00
1592;DHT22;789;51.612;7.510;2022-12-18T07:17:04;-6.00;1.00
1592;DHT22;789;51.612;7.510;2022-12-18T07:19:31;-5.90;1.00
1592;DHT22;789;51.612;7.510;2022-12-18T07:21:58;-5.90;1.00
1592;DHT22;789;51.612;7.510;2022-12-18T07:24:26;-5.80;1.00
1592;DHT22;789;51.612;7.510;2022-12-18T07:26:53;-5.80;1.00
1592;DHT22;789;51.612;7.510;2022-12-18T07:29:20;-5.80;1.00
1592;DHT22;789;51.612;7.510;2022-12-18T07:31:46;-5.80;1.00
1592;DHT22;789;51.612;7.510;2022-12-18T07:34:14;-5.80;1.00
1592;DHT22;789;51.612;7.510;2022-12-18T07:36:41;-5.80;1.00
1592;DHT22;789;51.612;7.510;2022-12-18T07:39:08;-5.70;1.00
1592;DHT22;789;51.612;7.510;2022-12-18T07:41:36;-5.60;1.00
1592;DHT22;789;51.612;7.510;2022-12-18T07:44:03;-5.50;1.00
1592;DHT22;789;51.612;7.510;2022-12-18T07:46:30;-5.40;1.00
1592;DHT22;789;51.612;7.510;2022-12-18T07:48:56;-5.40;1.00
1592;DHT22;789;51.612;7.510;2022-12-18T07:51:23;-5.20;1.00
1592;DHT22;789;51.612;7.510;2022-12-18T07:53:50;-5.10;1.00
1592;DHT22;789;51.612;7.510;2022-12-18T07:56:16;-5.00;1.00
1592;DHT22;789;51.612;7.510;2022-12-18T07:58:44;-5.00;1.00
1592;DHT22;789;51.612;7.510;2022-12-18T08:01:14;-4.90;1.00
1592;DHT22;789;51.612;7.510;2022-12-18T08:03:41;-4.80;1.00
1592;DHT22;789;51.612;7.510;2022-12-18T08:06:09;-4.80;1.00
1592;DHT22;789;51.612;7.510;2022-12-18T08:08:36;-4.70;1.00
1592;DHT22;789;51.612;7.510;2022-12-18T08:11:03;-4.60;1.00
1592;DHT22;789;51.612;7.510;2022-12-18T08:13:30;-4.50;1.00
1592;DHT22;789;51.612;7.510;2022-12-18T08:16:00;-4.40;1.00
1592;DHT22;789;51.612;7.510;2022-12-18T08:18:27;-4.30;1.00
1592;DHT22;789;51.612;7.510;2022-12-18T08:20:54;-4.20;1.00
1592;DHT22;789;51.612;7.510;2022-12-18T08:23:21;-4.10;1.00
1592;DHT22;789;51.612;7.510;2022-12-18T08:25:47;-4.00;1.00
1592;DHT22;789;51.612;7.510;2022-12-18T08:28:15;-3.90;1.00
1592;DHT22;789;51.612;7.510;2022-12-18T08:30:41;-3.80;1.00
1592;DHT22;789;51.612;7.510;2022-12-18T08:33:10;-3.80;1.00
1592;DHT22;789;51.612;7.510;2022-12-18T08:35:37;-3.60;1.00
1592;DHT22;789;51.612;7.510;2022-12-18T08:38:04;-3.40;1.00
1592;DHT22;789;51.612;7.510;2022-12-18T08:40:31;-3.10;1.00
1592;DHT22;789;51.612;7.510;2022-12-18T08:42:57;-2.70;1.00
1592;DHT22;789;51.612;7.510;2022-12-18T08:45:42;-2.80;1.00
1592;DHT22;789;51.612;7.510;2022-12-18T08:48:10;-2.30;1.00
1592;DHT22;789;51.612;7.510;2022-12-18T08:50:37;-1.50;1.00
1592;DHT22;789;51.612;7.510;2022-12-18T08:53:03;-0.30;1.00
1592;DHT22;789;51.612;7.510;2022-12-18T08:55:30;1.10;1.00
1592;DHT22;789;51.612;7.510;2022-12-18T08:57:57;2.30;1.00
1592;DHT22;789;51.612;7.510;2022-12-18T09:00:23;3.20;1.00
1592;DHT22;789;51.612;7.510;2022-12-18T09:02:50;3.90;1.00
1592;DHT22;789;51.612;7.510;2022-12-18T09:05:18;4.20;1.00
1592;DHT22;789;51.612;7.510;2022-12-18T09:07:45;4.00;1.00
1592;DHT22;789;51.612;7.510;2022-12-18T09:10:12;3.80;1.00
1592;DHT22;789;51.612;7.510;2022-12-18T09:12:38;3.50;1.00
1592;DHT22;789;51.612;7.510;2022-12-18T09:15:06;3.50;1.00
1592;DHT22;789;51.612;7.510;2022-12-18T09:17:33;3.90;1.00
1592;DHT22;789;51.612;7.510;2022-12-18T09:19:59;4.60;1.00
1592;DHT22;789;51.612;7.510;2022-12-18T09:22:27;5.50;1.00
1592;DHT22;789;51.612;7.510;2022-12-18T09:24:54;6.50;1.00
1592;DHT22;789;51.612;7.510;2022-12-18T09:27:21;7.50;1.00
1592;DHT22;789;51.612;7.510;2022-12-18T09:29:47;8.20;1.00
1592;DHT22;789;51.612;7.510;2022-12-18T09:32:14;8.50;1.00
1592;DHT22;789;51.612;7.510;2022-12-18T09:34:41;8.50;1.00
1592;DHT22;789;51.612;7.510;2022-12-18T09:37:08;8.50;1.00
1592;DHT22;789;51.612;7.510;2022-12-18T09:39:36;8.40;1.00
1592;DHT22;789;51.612;7.510;2022-12-18T09:42:03;8.20;1.00
1592;DHT22;789;51.612;7.510;2022-12-18T09:44:33;8.10;1.00
1592;DHT22;789;51.612;7.510;2022-12-18T09:47:06;7.90;1.00
1592;DHT22;789;51.612;7.510;2022-12-18T09:49:39;7.90;1.00
1592;DHT22;789;51.612;7.510;2022-12-18T09:52:11;8.10;1.00
1592;DHT22;789;51.612;7.510;2022-12-18T09:54:41;8.60;1.00
1592;DHT22;789;51.612;7.510;2022-12-18T09:57:14;8.90;1.00
1592;DHT22;789;51.612;7.510;2022-12-18T09:59:42;9.10;1.00
1592;DHT22;789;51.612;7.510;2022-12-18T10:02:15;9.10;1.00
1592;DHT22;789;51.612;7.510;2022-12-18T10:04:42;9.10;1.00
1592;DHT22;789;51.612;7.510;2022-12-18T10:07:15;9.20;1.00
1592;DHT22;789;51.612;7.510;2022-12-18T10:09:53;9.30;1.00
1592;DHT22;789;51.612;7.510;2022-12-18T10:12:27;9.50;1.00
1592;DHT22;789;51.612;7.510;2022-12-18T10:15:01;9.90;1.00
1592;DHT22;789;51.612;7.510;2022-12-18T10:17:35;10.30;1.00
1592;DHT22;789;51.612;7.510;2022-12-18T10:20:12;10.50;1.00
1592;DHT22;789;51.612;7.510;2022-12-18T10:22:48;10.70;1.00
1592;DHT22;789;51.612;7.510;2022-12-18T10:25:23;10.70;1.00
1592;DHT22;789;51.612;7.510;2022-12-18T10:27:53;10.60;1.00
1592;DHT22;789;51.612;7.510;2022-12-18T10:30:22;10.40;1.00
1592;DHT22;789;51.612;7.510;2022-12-18T10:32:50;10.40;1.00
1592;DHT22;789;51.612;7.510;2022-12-18T10:35:20;10.20;1.00
1592;DHT22;789;51.612;7.510;2022-12-18T10:38:06;9.90;1.00
1592;DHT22;789;51.612;7.510;2022-12-18T10:40:48;9.60;1.00
1592;DHT22;789;51.612;7.510;2022-12-18T10:43:20;9.10;1.00
1592;DHT22;789;51.612;7.510;2022-12-18T10:45:59;8.40;1.00
1592;DHT22;789;51.612;7.510;2022-12-18T10:48:27;7.70;1.00
1592;DHT22;789;51.612;7.510;2022-12-18T10:50:54;7.00;1.00
1592;DHT22;789;51.612;7.510;2022-12-18T10:53:24;6.40;1.00
1592;DHT22;789;51.612;7.510;2022-12-18T10:55:54;5.90;1.00
1592;DHT22;789;51.612;7.510;2022-12-18T10:58:24;5.40;1.00
1592;DHT22;789;51.612;7.510;2022-12-18T11:01:04;5.10;1.00
1592;DHT22;789;51.612;7.510;2022-12-18T11:03:33;4.70;1.00
1592;DHT22;789;51.612;7.510;2022-12-18T11:06:04;4.30;1.00
1592;DHT22;789;51.612;7.510;2022-12-18T11:08:31;4.20;1.00
1592;DHT22;789;51.612;7.510;2022-12-18T11:10:59;4.20;1.00
1592;DHT22;789;51.612;7.510;2022-12-18T11:13:28;4.20;1.00
1592;DHT22;789;51.612;7.510;2022-12-18T11:15:56;4.20;1.00
1592;DHT22;789;51.612;7.510;2022-12-18T11:18:26;4.20;1.00
1592;DHT22;789;51.612;7.510;2022-12-18T11:20:54;4.30;1.00
1592;DHT22;789;51.612;7.510;2022-12-18T11:23:23;4.60;1.00
1592;DHT22;789;51.612;7.510;2022-12-18T11:25:52;4.90;1.00
1592;DHT22;789;51.612;7.510;2022-12-18T11:28:35;5.00;1.00
1592;DHT22;789;51.612;7.510;2022-12-18T11:31:22;5.00;1.00
1592;DHT22;789;51.612;7.510;2022-12-18T11:33:56;4.90;1.00
1592;DHT22;789;51.612;7.510;2022-12-18T11:36:28;4.70;1.00
1592;DHT22;789;51.612;7.510;2022-12-18T11:38:57;4.60;1.00
1592;DHT22;789;51.612;7.510;2022-12-18T11:41:28;4.50;1.00
1592;DHT22;789;51.612;7.510;2022-12-18T11:44:15;4.30;1.00
1592;DHT22;789;51.612;7.510;2022-12-18T11:46:47;4.20;1.00
1592;DHT22;789;51.612;7.510;2022-12-18T11:49:20;4.10;1.00
1592;DHT22;789;51.612;7.510;2022-12-18T11:51:53;3.90;1.00
1592;DHT22;789;51.612;7.510;2022-12-18T11:54:20;3.80;1.00
1592;DHT22;789;51.612;7.510;2022-12-18T11:56:49;3.70;1.00
1592;DHT22;789;51.612;7.510;2022-12-18T11:59:24;3.60;1.00
1592;DHT22;789;51.612;7.510;2022-12-18T12:01:59;3.30;1.00
1592;DHT22;789;51.612;7.510;2022-12-18T12:07:32;2.70;1.00
1592;DHT22;789;51.612;7.510;2022-12-18T12:10:11;2.50;1.00
1592;DHT22;789;51.612;7.510;2022-12-18T12:12:54;2.30;1.00
1592;DHT22;789;51.612;7.510;2022-12-18T12:15:34;2.20;1.00
1592;DHT22;789;51.612;7.510;2022-12-18T12:18:08;2.00;1.00
1592;DHT22;789;51.612;7.510;2022-12-18T12:20:49;1.90;1.00
1592;DHT22;789;51.612;7.510;2022-12-18T12:23:25;1.80;1.00
1592;DHT22;789;51.612;7.510;2022-12-18T12:25:59;1.80;1.00
1592;DHT22;789;51.612;7.510;2022-12-18T12:28:46;1.70;1.00
1592;DHT22;789;51.612;7.510;2022-12-18T12:31:26;1.60;1.00
1592;DHT22;789;51.612;7.510;2022-12-18T12:34:00;1.60;1.00
1592;DHT22;789;51.612;7.510;2022-12-18T12:36:39;1.60;1.00
1592;DHT22;789;51.612;7.510;2022-12-18T12:39:13;1.60;1.00
1592;DHT22;789;51.612;7.510;2022-12-18T12:41:42;1.60;1.00
1592;DHT22;789;51.612;7.510;2022-12-18T12:44:33;1.50;1.00
1592;DHT22;789;51.612;7.510;2022-12-18T12:47:09;1.50;1.00
1592;DHT22;789;51.612;7.510;2022-12-18T12:49:38;1.50;1.00
1592;DHT22;789;51.612;7.510;2022-12-18T12:52:10;1.50;1.00
1592;DHT22;789;51.612;7.510;2022-12-18T12:54:37;1.50;1.00
1592;DHT22;789;51.612;7.510;2022-12-18T12:57:09;1.50;1.00
1592;DHT22;789;51.612;7.510;2022-12-18T12:59:47;1.50;1.00
1592;DHT22;789;51.612;7.510;2022-12-18T13:02:23;1.50;1.00
1592;DHT22;789;51.612;7.510;2022-12-18T13:04:57;1.50;1.00
1592;DHT22;789;51.612;7.510;2022-12-18T13:07:29;1.40;1.00
1592;DHT22;789;51.612;7.510;2022-12-18T13:10:31;1.30;1.00
1592;DHT22;789;51.612;7.510;2022-12-18T13:13:00;1.30;1.00
1592;DHT22;789;51.612;7.510;2022-12-18T13:15:31;1.20;1.00
1592;DHT22;789;51.612;7.510;2022-12-18T13:18:16;1.20;1.00
1592;DHT22;789;51.612;7.510;2022-12-18T13:20:44;1.20;1.00
1592;DHT22;789;51.612;7.510;2022-12-18T13:23:33;1.10;1.00
1592;DHT22;789;51.612;7.510;2022-12-18T13:26:30;1.10;1.00
1592;DHT22;789;51.612;7.510;2022-12-18T13:29:00;1.20;1.00
1592;DHT22;789;51.612;7.510;2022-12-18T13:31:58;1.20;1.00
1592;DHT22;789;51.612;7.510;2022-12-18T13:34:27;1.20;1.00
1592;DHT22;789;51.612;7.510;2022-12-18T13:37:36;1.20;1.00
1592;DHT22;789;51.612;7.510;2022-12-18T13:39:44;1.10;1.00
1592;DHT22;789;51.612;7.510;2022-12-18T13:42:38;1.10;1.00
1592;DHT22;789;51.612;7.510;2022-12-18T13:45:38;1.10;1.00
1592;DHT22;789;51.612;7.510;2022-12-18T13:48:10;1.10;1.00
1592;DHT22;789;51.612;7.510;2022-12-18T13:50:42;1.20;1.00
1592;DHT22;789;51.612;7.510;2022-12-18T13:53:15;1.20;1.00
1592;DHT22;789;51.612;7.510;2022-12-18T13:55:45;1.30;1.00
1592;DHT22;789;51.612;7.510;2022-12-18T13:58:12;1.40;1.00
1592;DHT22;789;51.612;7.510;2022-12-18T14:00:42;1.40;1.00
1592;DHT22;789;51.612;7.510;2022-12-18T14:03:18;1.50;1.00
1592;DHT22;789;51.612;7.510;2022-12-18T14:05:53;1.50;1.00
1592;DHT22;789;51.612;7.510;2022-12-18T14:08:21;1.60;1.00
1592;DHT22;789;51.612;7.510;2022-12-18T14:10:49;1.60;1.00
1592;DHT22;789;51.612;7.510;2022-12-18T14:13:21;1.60;1.00
1592;DHT22;789;51.612;7.510;2022-12-18T14:15:50;1.50;1.00
1592;DHT22;789;51.612;7.510;2022-12-18T14:18:21;1.60;1.00
1592;DHT22;789;51.612;7.510;2022-12-18T14:20:51;1.60;1.00
1592;DHT22;789;51.612;7.510;2022-12-18T14:23:27;1.60;1.00
1592;DHT22;789;51.612;7.510;2022-12-18T14:25:54;1.70;1.00
1592;DHT22;789;51.612;7.510;2022-12-18T14:28:21;1.60;1.00
1592;DHT22;789;51.612;7.510;2022-12-18T14:30:49;1.60;1.00
1592;DHT22;789;51.612;7.510;2022-12-18T14:33:17;1.60;1.00
1592;DHT22;789;51.612;7.510;2022-12-18T14:35:55;1.60;1.00
1592;DHT22;789;51.612;7.510;2022-12-18T14:38:26;1.50;1.00
1592;DHT22;789;51.612;7.510;2022-12-18T14:40:55;1.40;1.00
1592;DHT22;789;51.612;7.510;2022-12-18T14:43:27;1.40;1.00
1592;DHT22;789;51.612;7.510;2022-12-18T14:45:54;1.30;1.00
1592;DHT22;789;51.612;7.510;2022-12-18T14:48:25;1.30;1.00
1592;DHT22;789;51.612;7.510;2022-12-18T14:51:00;1.20;1.00
1592;DHT22;789;51.612;7.510;2022-12-18T14:53:33;1.20;1.00
1592;DHT22;789;51.612;7.510;2022-12-18T14:56:01;1.10;1.00
1592;DHT22;789;51.612;7.510;2022-12-18T14:58:28;1.10;1.00
1592;DHT22;789;51.612;7.510;2022-12-18T15:00:55;1.10;1.00
1592;DHT22;789;51.612;7.510;2022-12-18T15:03:22;1.10;1.00
1592;DHT22;789;51.612;7.510;2022-12-18T15:05:49;1.10;1.00
1592;DHT22;789;51.612;7.510;2022-12-18T15:08:34;1.10;1.00
1592;DHT22;789;51.612;7.510;2022-12-18T15:11:02;1.10;1.00
1592;DHT22;789;51.612;7.510;2022-12-18T15:13:29;1.10;1.00
1592;DHT22;789;51.612;7.510;2022-12-18T15:15:56;1.10;1.00
1592;DHT22;789;51.612;7.510;2022-12-18T15:18:30;1.00;1.00
1592;DHT22;789;51.612;7.510;2022-12-18T15:20:59;1.10;1.00
1592;DHT22;789;51.612;7.510;2022-12-18T15:23:36;1.10;1.00
1592;DHT22;789;51.612;7.510;2022-12-18T15:26:06;1.20;1.00
1592;DHT22;789;51.612;7.510;2022-12-18T15:28:36;1.20;1.00
1592;DHT22;789;51.612;7.510;2022-12-18T15:31:17;1.20;1.00
1592;DHT22;789;51.612;7.510;2022-12-18T15:34:10;1.40;1.00
1592;DHT22;789;51.612;7.510;2022-12-18T15:36:37;1.30;1.00
1592;DHT22;789;51.612;7.510;2022-12-18T15:39:06;1.40;1.00
1592;DHT22;789;51.612;7.510;2022-12-18T15:41:34;1.50;1.00
1592;DHT22;789;51.612;7.510;2022-12-18T15:44:01;1.50;1.00
1592;DHT22;789;51.612;7.510;2022-12-18T15:46:27;1.60;1.00
1592;DHT22;789;51.612;7.510;2022-12-18T15:48:55;1.60;1.00
1592;DHT22;789;51.612;7.510;2022-12-18T15:51:24;1.60;1.00
1592;DHT22;789;51.612;7.510;2022-12-18T15:53:52;1.60;1.00
1592;DHT22;789;51.612;7.510;2022-12-18T15:56:22;1.70;1.00
1592;DHT22;789;51.612;7.510;2022-12-18T15:59:10;1.70;1.00
1592;DHT22;789;51.612;7.510;2022-12-18T16:01:38;1.70;1.00
1592;DHT22;789;51.612;7.510;2022-12-18T16:04:05;1.70;1.00
1592;DHT22;789;51.612;7.510;2022-12-18T16:06:32;1.80;1.00
1592;DHT22;789;51.612;7.510;2022-12-18T16:08:58;1.80;1.00
1592;DHT22;789;51.612;7.510;2022-12-18T16:11:28;1.90;1.00
1592;DHT22;789;51.612;7.510;2022-12-18T16:14:17;1.90;1.00
1592;DHT22;789;51.612;7.510;2022-12-18T16:16:45;1.90;1.00
1592;DHT22;789;51.612;7.510;2022-12-18T16:19:11;1.90;1.00
1592;DHT22;789;51.612;7.510;2022-12-18T16:21:38;1.90;1.00
1592;DHT22;789;51.612;7.510;2022-12-18T16:24:07;1.90;1.00
1592;DHT22;789;51.612;7.510;2022-12-18T16:26:37;1.90;1.00
1592;DHT22;789;51.612;7.510;2022-12-18T16:29:03;2.00;1.00
1592;DHT22;789;51.612;7.510;2022-12-18T16:31:30;2.00;1.00
1592;DHT22;789;51.612;7.510;2022-12-18T16:34:10;2.10;1.00
1592;DHT22;789;51.612;7.510;2022-12-18T16:36:37;2.10;1.00
1592;DHT22;789;51.612;7.510;2022-12-18T16:39:04;2.20;1.00
1592;DHT22;789;51.612;7.510;2022-12-18T16:41:30;2.00;1.00
1592;DHT22;789;51.612;7.510;2022-12-18T16:43:59;2.00;1.00
1592;DHT22;789;51.612;7.510;2022-12-18T16:46:26;2.00;1.00
1592;DHT22;789;51.612;7.510;2022-12-18T16:48:53;2.00;1.00
1592;DHT22;789;51.612;7.510;2022-12-18T16:51:19;2.00;1.00
1592;DHT22;789;51.612;7.510;2022-12-18T16:53:46;2.00;1.00
1592;DHT22;789;51.612;7.510;2022-12-18T16:56:13;2.00;1.00
1592;DHT22;789;51.612;7.510;2022-12-18T16:58:40;2.00;1.00
1592;DHT22;789;51.612;7.510;2022-12-18T17:01:09;2.00;1.00
1592;DHT22;789;51.612;7.510;2022-12-18T17:03:35;2.00;1.00